Latest Weather Observations for Cunderdin Airport

IDW60801

Issued at 9:33 am WST Wednesday 27 May 2015 (issued every 30 minutes, with the page automatically refreshed every 10 minutes)

About weather observations | Map of weather stations | Latest weather observations for WA | Other Formats
Station Details ID: 010286 Name: CUNDERDIN AIRFIELD Lat: -31.62 Lon: 117.22 Height: 216.7 m
Data from the previous 72 hours. | See also: Recent months at Cunderdin Airport
Date/Time
WST
Temp
°C
App
Temp
°C
Dew
Point
Rel
Hum
%
Delta-T
°C
Wind Press
QNH
hPa
Press
MSL
hPa
Rain
since 9 am
mm
Dir
 
Spd
km/h
Gust
km/h
Spd
kts
Gust
kts
27/09:30am 11.9 11.8 9.6 86 1.2 CALM 0 6 0 3 1024.6 1024.3 0.0
27/09:00am 9.4 8.0 8.9 97 0.2 WSW 6 9 3 5 1024.5 1024.2 0.0
27/08:30am 7.4 6.3 7.0 97 0.2 NW 2 7 1 4 1024.5 1024.2 0.0
27/08:00am 5.5 4.4 5.1 97 0.2 CALM 0 0 0 0 1024.1 1023.8 0.0
27/07:30am 4.1 2.7 3.5 96 0.3 CALM 0 2 0 1 1023.7 1023.5 0.0
27/07:00am 3.6 2.1 3.0 96 0.2 CALM 0 0 0 0 1023.5 1023.3 0.0
27/06:30am 3.6 0.8 3.0 96 0.2 NE 7 9 4 5 1023.4 1023.2 0.0
27/06:00am 3.7 1.1 3.0 95 0.3 NE 6 7 3 4 1023.0 1022.8 0.0
27/05:30am 4.1 2.7 3.4 95 0.3 CALM 0 0 0 0 1022.9 1022.7 0.0
27/05:00am 4.6 3.3 3.9 95 0.3 CALM 0 0 0 0 1022.8 1022.6 0.0
27/04:30am 5.3 3.0 4.6 95 0.3 SW 6 9 3 5 1022.7 1022.5 0.0
27/04:00am 5.6 4.5 4.9 95 0.3 CALM 0 0 0 0 1022.8 1022.6 0.0
27/03:30am 5.5 3.6 4.8 95 0.3 NNW 4 6 2 3 1022.8 1022.6 0.0
27/03:00am 5.6 3.1 4.7 94 0.4 NNW 7 9 4 5 1022.8 1022.6 0.0
27/02:30am 7.2 5.1 6.5 95 0.3 SSE 7 9 4 5 1022.7 1022.5 0.0
27/02:00am 5.8 3.5 4.9 94 0.4 NE 6 9 3 5 1022.8 1022.6 0.0
27/01:30am 6.1 3.9 5.2 94 0.4 NNE 6 7 3 4 1022.9 1022.7 0.0
27/01:00am 6.3 5.2 5.3 93 0.4 CALM 0 0 0 0 1023.0 1022.8 0.0
27/12:30am 7.4 6.6 6.3 93 0.5 CALM 0 0 0 0 1023.1 1022.9 0.0
27/12:00am 7.7 6.9 6.6 93 0.5 CALM 0 0 0 0 1023.2 1023.0 0.0
 
Date/Time
WST
Temp
°C
App
Temp
°C
Dew
Point
Rel
Hum
%
Delta-T
°C
Wind Press
QNH
hPa
Press
MSL
hPa
Rain
since 9 am
mm
Dir
 
Spd
km/h
Gust
km/h
Spd
kts
Gust
kts
26/11:30pm 8.2 7.5 7.0 92 0.6 CALM 0 0 0 0 1023.4 1023.2 0.0
26/11:00pm 8.0 6.4 6.5 90 0.7 N 4 6 2 3 1023.6 1023.4 0.0
26/10:30pm 8.8 6.4 7.1 89 0.8 W 9 11 5 6 1023.8 1023.6 0.0
26/10:00pm 9.4 8.9 7.8 90 0.8 CALM 0 0 0 0 1023.9 1023.7 0.0
26/09:30pm 9.4 8.8 7.5 88 0.9 CALM 0 0 0 0 1024.1 1023.8 0.0
26/09:00pm 10.1 9.6 8.0 87 1.0 CALM 0 0 0 0 1024.1 1023.8 0.0
26/08:30pm 10.4 9.9 8.0 85 1.2 CALM 0 0 0 0 1023.9 1023.7 0.0
26/08:00pm 11.3 10.8 8.0 80 1.6 CALM 0 0 0 0 1023.7 1023.5 0.0
26/07:30pm 14.0 14.0 9.8 76 2.2 CALM 0 0 0 0 1023.5 1023.3 0.0
26/07:00pm 14.7 14.7 9.9 73 2.5 CALM 0 0 0 0 1023.4 1023.2 0.0
26/06:30pm 15.6 15.2 9.9 69 3.0 SSE 2 6 1 3 1023.1 1022.9 0.0
26/06:00pm 15.8 14.1 9.9 68 3.1 S 9 11 5 6 1022.8 1022.6 0.0
26/05:30pm 16.1 14.4 10.0 67 3.2 S 9 11 5 6 1022.6 1022.4 0.0
26/05:00pm 17.0 14.9 9.7 62 3.9 SSW 11 15 6 8 1022.4 1022.2 0.0
26/04:30pm 17.8 15.1 10.2 61 4.1 S 15 19 8 10 1022.4 1022.2 0.0
26/04:00pm 18.6 14.9 10.2 58 4.5 SSW 20 26 11 14 1022.3 1022.1 0.0
26/03:30pm 18.9 15.3 9.7 55 4.9 SSW 19 26 10 14 1022.3 1022.1 0.0
26/03:00pm 19.6 15.7 9.5 52 5.4 SSW 20 28 11 15 1022.1 1021.9 0.0
26/02:30pm 20.0 16.3 10.1 53 5.4 SSW 20 26 11 14 1022.0 1021.8 0.0
26/02:00pm 20.8 17.0 9.7 49 6.0 SSW 20 30 11 16 1022.1 1021.9 0.0
26/01:30pm 20.2 16.8 9.2 49 5.9 SW 17 26 9 14 1022.2 1022.0 0.0
26/01:00pm 20.8 17.4 9.1 47 6.2 SW 17 24 9 13 1022.6 1022.4 0.0
26/12:30pm 20.2 16.7 8.8 48 6.1 WSW 17 20 9 11 1023.1 1022.9 0.0
26/12:00pm 19.5 17.9 10.2 55 5.0 W 9 17 5 9 1023.5 1023.3 0.0
26/11:30am 18.9 17.4 10.7 59 4.5 SW 9 20 5 11 1024.1 1023.8 0.0
26/11:00am 17.9 17.9 11.0 64 3.8 NW 2 7 1 4 1024.3 1024.0 0.0
26/10:30am 17.6 17.7 11.6 68 3.3 NW 2 7 1 4 1024.5 1024.2 0.0
26/10:00am 16.0 16.0 11.0 72 2.7 NNW 2 6 1 3 1024.8 1024.5 0.0
26/09:30am 13.7 13.7 9.9 78 2.0 CALM 0 0 0 0 1024.9 1024.6 0.0
26/09:00am 11.2 11.0 8.9 86 1.1 CALM 0 0 0 0 1024.8 1024.5 0.0
26/08:30am 9.0 8.3 7.1 88 0.9 CALM 0 0 0 0 1024.7 1024.4 0.0
26/08:00am 7.3 6.5 6.4 94 0.4 CALM 0 6 0 3 1024.6 1024.3 0.0
26/07:30am 5.2 4.0 4.5 95 0.3 CALM 0 0 0 0 1024.4 1024.1 0.0
26/07:00am 4.7 3.0 4.0 95 0.3 NE 2 6 1 3 1024.2 1023.9 0.0
26/06:30am 4.3 1.5 3.4 94 0.4 NE 7 9 4 5 1023.5 1023.3 0.0
26/06:00am 5.0 3.7 4.1 94 0.4 CALM 0 0 0 0 1023.1 1022.9 0.0
26/05:30am 5.3 4.1 4.4 94 0.4 CALM 0 0 0 0 1022.9 1022.7 0.0
26/05:00am 5.9 4.8 5.0 94 0.4 CALM 0 0 0 0 1022.7 1022.5 0.0
26/04:30am 6.0 4.9 5.1 94 0.4 CALM 0 0 0 0 1022.4 1022.2 0.0
26/04:00am 6.1 5.0 4.9 92 0.5 CALM 0 0 0 0 1022.5 1022.3 0.0
26/03:30am 6.8 5.8 5.7 93 0.5 CALM 0 0 0 0 1022.5 1022.3 0.0
26/03:00am 6.9 5.9 5.8 93 0.5 CALM 0 0 0 0 1022.5 1022.3 0.0
26/02:30am 6.6 4.4 5.2 91 0.6 N 6 7 3 4 1022.5 1022.3 0.0
26/02:00am 6.8 5.0 5.6 92 0.5 NNE 4 7 2 4 1022.6 1022.4 0.0
26/01:30am 7.7 5.7 6.2 90 0.7 WNW 6 7 3 4 1022.5 1022.3 0.0
26/01:00am 7.5 5.4 5.6 88 0.9 NNW 6 7 3 4 1022.5 1022.3 0.0
26/12:30am 9.0 6.9 6.6 85 1.1 WNW 7 9 4 5 1022.8 1022.6 0.0
26/12:00am 9.7 7.3 7.0 83 1.3 W 9 9 5 5 1022.9 1022.7 0.0
 
Date/Time
WST
Temp
°C
App
Temp
°C
Dew
Point
Rel
Hum
%
Delta-T
°C
Wind Press
QNH
hPa
Press
MSL
hPa
Rain
since 9 am
mm
Dir
 
Spd
km/h
Gust
km/h
Spd
kts
Gust
kts
25/11:30pm 9.6 7.1 6.5 81 1.5 WNW 9 11 5 6 1023.0 1022.8 0.0
25/11:00pm 9.2 6.6 6.3 82 1.3 WNW 9 9 5 5 1023.1 1022.9 0.0
25/10:30pm 9.7 7.2 6.4 80 1.6 W 9 11 5 6 1023.1 1022.9 0.0
25/10:00pm 10.1 7.3 6.8 80 1.6 W 11 13 6 7 1023.0 1022.8 0.0
25/09:30pm 10.4 8.0 6.9 79 1.7 WNW 9 11 5 6 1022.9 1022.7 0.0
25/09:00pm 9.9 7.0 6.6 80 1.6 WNW 11 17 6 9 1022.7 1022.5 0.0
25/08:30pm 10.4 9.6 6.7 78 1.8 CALM 0 0 0 0 1022.3 1022.1 0.0
25/08:00pm 11.0 9.8 6.6 74 2.1 WSW 2 6 1 3 1022.0 1021.8 0.0
25/07:30pm 13.0 11.1 7.5 69 2.7 SSW 7 9 4 5 1021.8 1021.6 0.0
25/07:00pm 13.3 11.0 7.5 68 2.9 SSW 9 11 5 6 1021.5 1021.3 0.0
25/06:30pm 14.0 11.0 7.8 66 3.1 SSW 13 13 7 7 1021.3 1021.0 0.0
25/06:00pm 14.9 11.9 7.7 62 3.6 SW 13 15 7 8 1021.1 1020.8 0.0
25/05:30pm 16.0 13.0 7.5 57 4.3 SW 13 15 7 8 1020.8 1020.5 0.0
25/05:00pm 18.8 16.1 7.3 47 5.9 SSW 11 13 6 7 1020.4 1020.1 0.0
25/04:30pm 20.5 17.4 7.2 42 6.9 SW 13 17 7 9 1020.3 1020.0 0.0
25/04:00pm 21.5 20.3 8.1 42 7.1 SSW 4 13 2 7 1020.1 1019.8 0.0
25/03:30pm 21.7 19.5 7.9 41 7.3 SW 9 13 5 7 1020.2 1019.9 0.0
25/03:00pm 21.5 20.3 8.1 42 7.1 SW 4 11 2 6 1020.2 1019.9 0.0
25/02:30pm 21.7 19.2 8.2 42 7.1 SSW 11 17 6 9 1020.2 1019.9 0.0
25/02:00pm 21.7 20.7 8.9 44 6.8 S 4 15 2 8 1020.2 1019.9 0.0
25/01:30pm 20.6 19.0 8.6 46 6.4 S 7 19 4 10 1020.4 1020.1 0.0
25/01:00pm 21.1 19.2 9.0 46 6.5 ESE 9 17 5 9 1020.7 1020.4 0.0
25/12:30pm 21.0 19.6 9.6 48 6.2 SE 7 15 4 8 1021.0 1020.7 0.0
25/12:00pm 20.8 19.7 10.6 52 5.6 ESE 7 13 4 7 1021.3 1021.0 0.0
25/11:30am 19.6 18.7 10.6 56 4.9 S 6 15 3 8 1021.9 1021.7 0.0
25/11:00am 18.4 17.5 10.5 60 4.3 S 6 13 3 7 1022.2 1022.0 0.0
25/10:30am 17.0 15.5 10.4 65 3.5 SE 9 13 5 7 1022.4 1022.2 0.0
25/10:00am 15.5 13.5 10.3 71 2.8 ESE 11 13 6 7 1022.6 1022.4 0.0
25/09:30am 14.2 12.5 10.0 76 2.2 E 9 13 5 7 1022.6 1022.4 0.0
25/09:00am 12.6 11.2 9.4 81 1.6 E 7 9 4 5 1022.6 1022.4 0.0
25/08:30am 10.7 9.3 9.0 89 0.9 NE 6 7 3 4 1022.5 1022.3 0.0
25/08:00am 8.9 8.5 8.3 96 0.3 CALM 0 0 0 0 1022.4 1022.2 0.0
25/07:30am 6.3 4.0 5.6 95 0.3 NNE 7 9 4 5 1022.3 1022.1 0.0
25/07:00am 5.6 3.3 4.9 95 0.3 N 6 7 3 4 1022.2 1022.0 0.0
25/06:30am 6.0 4.9 5.3 95 0.3 CALM 0 0 0 0 1022.0 1021.8 0.0
25/06:00am 6.0 3.8 5.3 95 0.3 NE 6 7 3 4 1021.7 1021.5 0.0
25/05:30am 6.1 3.9 5.4 95 0.3 NNW 6 7 3 4 1021.7 1021.5 0.0
25/05:00am 6.2 3.8 5.3 94 0.4 WNW 7 9 4 5 1021.7 1021.5 0.0
25/04:30am 6.5 5.1 5.6 94 0.4 NNE 2 6 1 3 1021.7 1021.5 0.0
25/04:00am 6.2 3.8 5.3 94 0.4 NE 7 9 4 5 1021.4 1021.2 0.0
25/03:30am 6.6 4.5 5.9 95 0.3 NE 6 7 3 4 1021.6 1021.4 0.0
25/03:00am 6.2 4.4 5.3 94 0.4 NNE 4 7 2 4 1022.0 1021.8 0.0
25/02:30am 7.0 6.1 6.1 94 0.4 CALM 0 0 0 0 1022.2 1022.0 0.0
25/02:00am 7.4 5.5 6.5 94 0.4 NNE 6 7 3 4 1022.3 1022.1 0.0
25/01:30am 7.1 5.0 6.0 93 0.5 NNE 6 7 3 4 1022.1 1021.9 0.0
25/01:00am 7.1 5.4 5.9 92 0.5 NNE 4 6 2 3 1022.1 1021.9 0.0
25/12:30am 8.1 7.4 6.9 92 0.6 CALM 0 0 0 0 1022.1 1021.9 0.0
25/12:00am 8.1 6.1 6.9 92 0.6 E 7 9 4 5 1022.1 1021.9 0.0
 
Date/Time
WST
Temp
°C
App
Temp
°C
Dew
Point
Rel
Hum
%
Delta-T
°C
Wind Press
QNH
hPa
Press
MSL
hPa
Rain
since 9 am
mm
Dir
 
Spd
km/h
Gust
km/h
Spd
kts
Gust
kts
24/11:30pm 8.7 6.7 7.3 91 0.7 ENE 7 9 4 5 1022.1 1021.9 0.0
24/11:00pm 8.8 6.5 7.3 90 0.7 NE 9 9 5 5 1022.2 1022.0 0.0
24/10:30pm 9.2 7.3 7.5 89 0.8 ESE 7 9 4 5 1022.2 1022.0 0.0
24/10:00pm 9.3 7.5 7.3 87 1.0 NE 6 7 3 4 1022.2 1022.0 0.0
24/09:30pm 10.9 9.1 8.0 82 1.4 E 7 9 4 5 1022.1 1021.9 0.0
24/09:00pm 14.0 12.7 9.8 76 2.2 SE 7 11 4 6 1021.9 1021.7 0.0
24/08:30pm 12.2 12.0 9.0 81 1.6 CALM 0 0 0 0 1021.9 1021.7 0.0
24/08:00pm 13.8 12.4 9.6 76 2.2 SSE 7 9 4 5 1021.6 1021.4 0.0
24/07:30pm 13.9 13.4 9.5 75 2.3 SSE 2 7 1 4 1021.7 1021.5 0.0
24/07:00pm 14.4 13.3 9.8 74 2.4 SSE 6 7 3 4 1021.6 1021.4 0.0
24/06:30pm 15.4 14.1 10.0 70 2.9 SSE 7 7 4 4 1021.3 1021.0 0.0
24/06:00pm 16.0 14.7 9.9 67 3.2 S 7 9 4 5 1021.1 1020.8 0.0
24/05:30pm 17.4 16.3 10.1 62 3.9 SSE 6 9 3 5 1020.8 1020.5 0.0
24/05:00pm 18.4 16.6 9.5 56 4.7 SSE 9 11 5 6 1020.6 1020.3 0.0
24/04:30pm 19.6 19.7 10.0 54 5.2 CALM 0 0 0 0 1020.5 1020.2 0.0
24/04:00pm 19.2 19.2 9.9 55 5.0 CALM 0 0 0 0 1020.4 1020.1 0.0
24/03:30pm 19.5 18.6 9.1 51 5.5 ESE 4 7 2 4 1020.4 1020.1 0.0
24/03:00pm 19.6 18.6 10.3 55 5.0 ESE 6 9 3 5 1020.3 1020.0 0.0
24/02:30pm 20.0 18.9 9.9 52 5.5 E 6 13 3 7 1020.3 1020.0 0.0
24/02:00pm 20.8 19.2 10.3 51 5.7 ENE 9 15 5 8 1020.3 1020.0 0.0
24/01:30pm 20.2 18.4 10.9 55 5.1 E 11 19 6 10 1020.5 1020.2 0.0
24/01:00pm 20.1 18.5 11.6 58 4.7 ESE 11 17 6 9 1020.8 1020.5 0.0
24/12:30pm 19.2 17.2 11.5 61 4.3 E 13 20 7 11 1021.2 1020.9 0.0
24/12:00pm 19.0 16.9 11.3 61 4.2 ESE 13 20 7 11 1021.7 1021.5 0.0
24/11:30am 18.3 15.5 11.4 64 3.8 E 17 22 9 12 1022.1 1021.9 0.0
24/11:00am 17.5 14.4 11.5 68 3.3 E 19 24 10 13 1022.5 1022.3 0.0
24/10:30am 17.0 14.2 11.3 69 3.1 ESE 17 24 9 13 1022.7 1022.5 0.0
24/10:00am 16.2 13.4 11.4 73 2.6 ESE 17 22 9 12 1022.8 1022.6 0.0

Other Formats:

Comma delimited format used in spreadsheet applications
http://www.bom.gov.au/fwo/IDW60801/IDW60801.95625.axf

JavaScript Object Notation format (JSON) in row-major order
http://www.bom.gov.au/fwo/IDW60801/IDW60801.95625.json